Time;durP1;ratioP1;P1;durP2;ratioP2;P2;SDS_P1;SDS_P2;PMS_P1;PMS_P2;Temp;Humidity;BMP_temperature;BMP_pressure;BME280_temperature;BME280_humidity;BME280_pressure;Samples;Min_cycle;Max_cycle;Signal;HPM_P1;HPM_P2
2023/03/18 00:00:15;;;;;;;0.73;0.73;;;;;;;-3.69;50.57;100828.78;4993462;28;20097;-79
2023/03/18 00:02:42;;;;;;;0.63;0.63;;;;;;;-3.80;50.77;100826.91;4993089;28;20476;-78
2023/03/18 00:05:11;;;;;;;0.85;0.85;;;;;;;-3.89;51.09;100824.91;4993194;28;20070;-79
2023/03/18 00:07:39;;;;;;;0.70;0.70;;;;;;;-3.85;51.08;100825.50;4993276;28;20101;-79
2023/03/18 00:10:08;;;;;;;0.88;0.88;;;;;;;-3.80;51.10;100834.81;4992952;28;20072;-78
2023/03/18 00:12:37;;;;;;;0.80;0.80;;;;;;;-3.78;50.96;100832.88;4993058;28;20053;-79
2023/03/18 00:15:07;;;;;;;0.80;0.80;;;;;;;-3.81;50.95;100834.91;4992775;28;20141;-79
2023/03/18 00:17:36;;;;;;;0.80;0.80;;;;;;;-3.81;51.01;100835.75;4993006;28;20532;-81
2023/03/18 00:20:05;;;;;;;0.60;0.60;;;;;;;-3.87;51.31;100837.97;4992631;28;20050;-79
2023/03/18 00:22:34;;;;;;;0.85;0.85;;;;;;;-3.85;50.98;100836.06;4992858;28;20046;-79
2023/03/18 00:25:02;;;;;;;0.90;0.90;;;;;;;-3.88;51.33;100844.19;4992531;28;20050;-78
2023/03/18 00:27:29;;;;;;;0.77;0.77;;;;;;;-3.96;51.51;100842.94;4993404;28;20054;-79
2023/03/18 00:29:57;;;;;;;0.80;0.80;;;;;;;-4.07;51.70;100845.47;4940404;28;20509;-79
2023/03/18 00:32:28;;;;;;;0.70;0.70;;;;;;;-4.07;52.05;100840.19;4973440;28;20066;-77
2023/03/18 00:34:55;;;;;;;0.80;0.80;;;;;;;-4.08;51.85;100842.94;4955324;28;20047;-80
2023/03/18 00:37:29;;;;;;;0.65;0.65;;;;;;;-4.09;51.86;100842.09;4956231;28;20457;-79
2023/03/18 00:40:08;;;;;;;0.65;0.65;;;;;;;-4.11;52.04;100851.06;4973169;28;20047;-79
2023/03/18 00:42:46;;;;;;;0.68;0.68;;;;;;;-4.12;52.26;100846.75;4940442;28;20046;-80
2023/03/18 00:45:15;;;;;;;0.70;0.70;;;;;;;-4.14;52.48;100846.84;4954677;28;20096;-79
2023/03/18 00:47:42;;;;;;;0.50;0.50;;;;;;;-4.16;52.33;100849.56;4963537;28;20090;-79
2023/03/18 00:50:10;;;;;;;0.85;0.85;;;;;;;-4.20;52.64;100855.19;4973404;28;20530;-80
2023/03/18 00:52:38;;;;;;;0.70;0.70;;;;;;;-4.25;52.78;100852.00;4956203;28;20418;-80
2023/03/18 00:55:06;;;;;;;0.60;0.60;;;;;;;-4.33;53.13;100859.56;4955340;28;20113;-80
2023/03/18 00:57:33;;;;;;;0.77;0.77;;;;;;;-4.38;53.32;100857.25;4955401;28;20050;-80
2023/03/18 01:00:01;;;;;;;0.80;0.80;;;;;;;-4.42;53.52;100866.31;4954313;28;20125;-80
2023/03/18 01:02:29;;;;;;;0.73;0.73;;;;;;;-4.36;53.29;100861.47;4939345;28;20145;-79
2023/03/18 01:04:57;;;;;;;0.60;0.60;;;;;;;-4.38;53.66;100868.66;4955037;28;20054;-80
2023/03/18 01:07:25;;;;;;;0.90;0.90;;;;;;;-4.34;53.42;100860.53;4958421;28;20046;-79
2023/03/18 01:09:53;;;;;;;0.60;0.60;;;;;;;-4.37;53.53;100870.34;4942796;28;20066;-80
2023/03/18 01:12:21;;;;;;;0.70;0.70;;;;;;;-4.40;53.38;100870.53;4942755;28;20081;-80
2023/03/18 01:14:48;;;;;;;0.70;0.70;;;;;;;-4.46;53.93;100873.56;4942470;28;20053;-78
2023/03/18 01:17:15;;;;;;;0.70;0.70;;;;;;;-4.45;53.76;100872.66;4942398;28;20074;-79
2023/03/18 01:19:43;;;;;;;0.60;0.60;;;;;;;-4.51;53.79;100873.03;4942253;28;20043;-80
2023/03/18 01:22:10;;;;;;;0.75;0.75;;;;;;;-4.59;54.17;100872.72;4942812;28;20090;-79
2023/03/18 01:24:43;;;;;;;0.80;0.80;;;;;;;-4.63;54.45;100882.63;4938738;28;20047;-78
2023/03/18 01:27:11;;;;;;;0.60;0.60;;;;;;;-4.68;54.68;100889.97;4954861;28;20077;-79
2023/03/18 01:29:41;;;;;;;0.60;0.60;;;;;;;-4.75;54.87;100890.47;4954986;28;20058;-79
2023/03/18 01:32:14;;;;;;;0.73;0.73;;;;;;;-4.71;55.02;100891.94;4954834;28;20053;-80
2023/03/18 01:34:43;;;;;;;0.82;0.82;;;;;;;-4.73;55.00;100883.31;4954804;28;20046;-80
2023/03/18 01:37:10;;;;;;;0.57;0.57;;;;;;;-4.77;55.29;100887.09;4971847;28;20086;-80
2023/03/18 01:39:40;;;;;;;0.80;0.80;;;;;;;-4.84;55.55;100889.28;4954832;28;20050;-79
2023/03/18 01:42:16;;;;;;;0.80;0.80;;;;;;;-4.83;55.50;100886.56;4954969;28;20058;-79
2023/03/18 01:44:45;;;;;;;0.80;0.80;;;;;;;-4.81;55.77;100892.56;4989256;28;20058;-79
2023/03/18 01:47:15;;;;;;;0.80;0.80;;;;;;;-4.75;55.76;100901.03;4990136;28;20402;-79
2023/03/18 01:49:51;;;;;;;0.80;0.80;;;;;;;-4.72;55.59;100900.81;4975027;28;20051;-79
2023/03/18 01:52:21;;;;;;;0.70;0.70;;;;;;;-4.68;55.44;100897.03;4990317;28;20057;-78
2023/03/18 01:54:55;;;;;;;0.60;0.60;;;;;;;-4.72;55.61;100899.00;4989857;28;20145;-78
2023/03/18 01:57:22;;;;;;;0.75;0.75;;;;;;;-4.75;55.67;100911.56;4957852;28;20485;-80
2023/03/18 01:59:51;;;;;;;0.60;0.60;;;;;;;-4.81;56.13;100910.13;4989720;28;20092;-79
2023/03/18 02:02:19;;;;;;;0.70;0.70;;;;;;;-4.75;55.92;100911.56;4974149;28;20046;-79
2023/03/18 02:04:52;;;;;;;0.75;0.75;;;;;;;-4.72;55.93;100908.72;4974354;28;20124;-78
2023/03/18 02:07:24;;;;;;;0.70;0.70;;;;;;;-4.84;55.91;100913.81;4980382;28;20457;-79
2023/03/18 02:09:52;;;;;;;0.65;0.65;;;;;;;-4.97;56.38;100918.19;4970016;28;20051;-78
2023/03/18 02:12:26;;;;;;;0.70;0.70;;;;;;;-5.09;56.86;100924.22;4959329;28;20053;-79
2023/03/18 02:14:58;;;;;;;0.73;0.73;;;;;;;-5.12;57.25;100929.69;4945617;28;20062;-78
2023/03/18 02:17:51;;;;;;;0.70;0.70;;;;;;;-5.16;57.29;100934.31;4938097;28;20065;-79
2023/03/18 02:20:23;;;;;;;0.60;0.60;;;;;;;-5.15;57.24;100932.53;4992397;28;20050;-79
2023/03/18 02:22:55;;;;;;;0.65;0.65;;;;;;;-5.24;57.50;100937.44;4960724;28;20133;-79
2023/03/18 02:25:23;;;;;;;0.70;0.70;;;;;;;-5.34;57.92;100940.72;4978324;28;20051;-78
2023/03/18 02:27:53;;;;;;;0.70;0.70;;;;;;;-5.42;58.15;100933.28;4960520;28;20098;-78
2023/03/18 02:30:25;;;;;;;0.80;0.80;;;;;;;-5.51;58.53;100939.13;4944972;28;21034;-78
2023/03/18 02:32:56;;;;;;;0.60;0.60;;;;;;;-5.54;58.68;100941.97;4960410;28;20059;-79
2023/03/18 02:35:24;;;;;;;0.70;0.70;;;;;;;-5.51;58.91;100953.13;4944917;28;20421;-78
2023/03/18 02:37:52;;;;;;;0.73;0.73;;;;;;;-5.50;58.66;100953.97;4944501;28;20548;-79
2023/03/18 02:40:24;;;;;;;0.80;0.80;;;;;;;-5.43;58.77;100949.19;4989846;28;20053;-79
2023/03/18 02:42:51;;;;;;;0.90;0.90;;;;;;;-5.44;58.64;100956.25;4997406;28;20398;-79
2023/03/18 02:45:47;;;;;;;0.80;0.80;;;;;;;-5.37;58.71;100961.97;4979962;28;20141;-78
2023/03/18 02:48:16;;;;;;;0.70;0.70;;;;;;;-5.40;58.53;100973.53;4996092;28;20058;-77
2023/03/18 02:50:44;;;;;;;0.90;0.90;;;;;;;-5.39;58.87;100969.09;4979606;28;20051;-78
2023/03/18 02:53:12;;;;;;;0.60;0.60;;;;;;;-5.44;58.81;100964.16;4980105;28;20054;-78
2023/03/18 02:55:41;;;;;;;0.77;0.77;;;;;;;-5.45;58.76;100973.81;4996523;28;20413;-79
2023/03/18 02:58:08;;;;;;;0.73;0.73;;;;;;;-5.45;58.99;100971.16;4996106;28;20085;-79
2023/03/18 03:00:36;;;;;;;0.60;0.60;;;;;;;-5.46;59.01;100977.38;4995579;28;20042;-79
2023/03/18 03:03:04;;;;;;;0.63;0.63;;;;;;;-5.45;59.06;100986.97;4979556;28;20101;-79
2023/03/18 03:05:33;;;;;;;0.80;0.80;;;;;;;-5.54;59.16;100982.28;4984752;28;20050;-79
2023/03/18 03:08:01;;;;;;;0.70;0.70;;;;;;;-5.59;59.22;100983.50;4996320;28;20422;-79
2023/03/18 03:10:31;;;;;;;0.70;0.70;;;;;;;-5.62;59.34;100981.03;4986338;28;20056;-79
2023/03/18 03:12:59;;;;;;;0.75;0.75;;;;;;;-5.70;59.42;100987.63;4986772;28;20121;-79
2023/03/18 03:15:26;;;;;;;0.73;0.73;;;;;;;-5.67;59.42;100986.59;4987528;28;20548;-79
2023/03/18 03:17:57;;;;;;;0.70;0.70;;;;;;;-5.66;59.65;100983.84;4979152;28;20097;-78
2023/03/18 03:20:24;;;;;;;0.60;0.60;;;;;;;-5.61;59.44;100990.63;4979863;28;20054;-80
2023/03/18 03:22:52;;;;;;;0.70;0.70;;;;;;;-5.67;59.63;100987.44;4977328;28;20198;-79
2023/03/18 03:25:19;;;;;;;0.70;0.70;;;;;;;-5.66;59.63;100989.09;4976492;28;20104;-79
2023/03/18 03:27:47;;;;;;;0.65;0.65;;;;;;;-5.60;59.40;100990.53;4976419;28;20135;-78
2023/03/18 03:30:15;;;;;;;0.70;0.70;;;;;;;-5.60;59.18;100981.78;4994340;28;20046;-79
2023/03/18 03:32:42;;;;;;;0.80;0.80;;;;;;;-5.63;59.23;100987.25;4976411;28;20129;-79
2023/03/18 03:35:13;;;;;;;0.70;0.70;;;;;;;-5.63;58.98;100984.59;4994272;28;20113;-79
2023/03/18 03:37:41;;;;;;;0.68;0.68;;;;;;;-5.61;59.07;100986.22;4978489;28;20050;-78
2023/03/18 03:40:10;;;;;;;0.75;0.75;;;;;;;-5.58;58.77;100988.66;4977729;28;20125;-79
2023/03/18 03:42:39;;;;;;;0.80;0.80;;;;;;;-5.59;58.64;100986.97;4993499;28;20090;-78
2023/03/18 03:45:09;;;;;;;0.80;0.80;;;;;;;-5.56;58.39;100989.41;4975759;28;20046;-79
2023/03/18 03:47:36;;;;;;;0.85;0.85;;;;;;;-5.49;58.22;100984.63;4976148;28;20050;-78
2023/03/18 03:50:04;;;;;;;0.90;0.90;;;;;;;-5.46;58.06;100990.53;4975932;28;20064;-80
2023/03/18 03:52:32;;;;;;;0.60;0.60;;;;;;;-5.46;57.80;100985.28;4976111;28;20565;-78
2023/03/18 03:54:59;;;;;;;0.73;0.73;;;;;;;-5.48;57.86;100991.56;4975975;28;20496;-80
2023/03/18 03:57:28;;;;;;;0.65;0.65;;;;;;;-5.43;57.71;100993.94;4975853;28;20046;-80
2023/03/18 03:59:55;;;;;;;0.70;0.70;;;;;;;-5.45;57.55;100988.75;4975853;28;20101;-80
2023/03/18 04:02:46;;;;;;;0.90;0.90;;;;;;;-5.49;57.64;101001.25;4975810;28;20612;-79
2023/03/18 04:05:16;;;;;;;0.80;0.80;;;;;;;-5.44;57.41;101003.63;4970922;28;20106;-78
2023/03/18 04:07:45;;;;;;;0.70;0.70;;;;;;;-5.42;57.60;100999.09;4978806;28;20101;-79
2023/03/18 04:10:15;;;;;;;0.70;0.70;;;;;;;-5.42;57.70;101003.50;4992244;28;20054;-79
2023/03/18 04:12:44;;;;;;;0.73;0.73;;;;;;;-5.40;57.49;101007.75;4972570;28;20086;-79
2023/03/18 04:15:13;;;;;;;0.77;0.77;;;;;;;-5.35;57.30;101008.31;4977944;28;20058;-81
2023/03/18 04:17:41;;;;;;;0.77;0.77;;;;;;;-5.29;57.28;101015.84;4984048;28;20065;-81
2023/03/18 04:20:10;;;;;;;0.80;0.80;;;;;;;-5.26;57.22;101012.19;4990635;28;20077;-80
2023/03/18 04:22:39;;;;;;;0.68;0.68;;;;;;;-5.17;56.97;101011.59;4990715;28;20047;-79
2023/03/18 04:25:13;;;;;;;0.75;0.75;;;;;;;-5.16;57.11;101015.09;4985757;28;20061;-81
2023/03/18 04:27:41;;;;;;;0.60;0.60;;;;;;;-5.12;57.09;101016.59;4969887;28;20050;-80
2023/03/18 04:30:12;;;;;;;0.70;0.70;;;;;;;-5.05;57.12;101018.75;4982631;28;20050;-80
2023/03/18 04:32:53;;;;;;;0.57;0.57;;;;;;;-5.01;57.12;101022.06;4983940;28;20133;-79
2023/03/18 04:35:22;;;;;;;0.70;0.70;;;;;;;-4.90;57.39;101016.09;4991092;28;20062;-81
2023/03/18 04:37:50;;;;;;;0.60;0.60;;;;;;;-4.77;57.22;101024.94;4981566;28;20081;-81
2023/03/18 04:40:18;;;;;;;0.70;0.70;;;;;;;-4.66;57.32;101027.75;4971713;28;20073;-80
2023/03/18 04:42:49;;;;;;;0.90;0.90;;;;;;;-4.54;57.02;101025.25;4956050;28;20106;-80
2023/03/18 04:45:21;;;;;;;0.80;0.80;;;;;;;-4.48;57.14;101023.09;4956720;28;20062;-87
2023/03/18 04:47:49;;;;;;;0.90;0.90;;;;;;;-4.44;57.28;101032.47;4984101;28;20098;-82
2023/03/18 04:50:17;;;;;;;0.60;0.60;;;;;;;-4.41;57.41;101032.25;4982802;28;20111;-81
2023/03/18 04:52:45;;;;;;;0.70;0.70;;;;;;;-4.34;57.33;101026.63;4974638;28;20528;-79
2023/03/18 04:55:16;;;;;;;0.70;0.70;;;;;;;-4.31;57.30;101035.16;4973202;28;20056;-80
2023/03/18 04:57:44;;;;;;;0.70;0.70;;;;;;;-4.28;57.19;101031.47;4975754;28;20058;-80
2023/03/18 05:00:16;;;;;;;0.80;0.80;;;;;;;-4.25;57.53;101040.06;4983667;28;20050;-78
2023/03/18 05:02:47;;;;;;;0.60;0.60;;;;;;;-4.20;57.73;101034.50;4970089;28;20076;-78
2023/03/18 05:05:14;;;;;;;0.65;0.65;;;;;;;-4.12;57.64;101041.91;4980324;28;20058;-80
2023/03/18 05:07:46;;;;;;;0.65;0.65;;;;;;;-4.06;57.55;101039.69;4966839;28;20043;-80
2023/03/18 05:10:15;;;;;;;0.80;0.80;;;;;;;-3.99;57.56;101043.63;4974346;28;20085;-82
2023/03/18 05:12:42;;;;;;;0.60;0.60;;;;;;;-3.93;57.38;101048.47;4972717;28;20053;-79
2023/03/18 05:15:13;;;;;;;0.70;0.70;;;;;;;-3.85;57.39;101044.47;4990797;28;20050;-81
2023/03/18 05:17:46;;;;;;;0.80;0.80;;;;;;;-3.77;57.30;101044.84;4970809;28;20405;-80
2023/03/18 05:20:13;;;;;;;0.70;0.70;;;;;;;-3.66;56.91;101049.41;4958382;28;20099;-78
2023/03/18 05:22:43;;;;;;;0.88;0.88;;;;;;;-3.55;56.64;101046.88;4954722;28;20120;-78
2023/03/18 05:25:27;;;;;;;0.80;0.80;;;;;;;-3.41;56.42;101051.22;4958904;28;20061;-81
2023/03/18 05:27:56;;;;;;;0.90;0.90;;;;;;;-3.32;56.30;101053.22;4967017;28;20124;-78
2023/03/18 05:30:38;;;;;;;0.70;0.70;;;;;;;-3.16;55.77;101056.50;4626619;28;9999976;-78
2023/03/18 05:33:08;;;;;;;0.80;0.80;;;;;;;-2.97;55.34;101055.22;4953995;28;20137;-77
2023/03/18 05:35:42;;;;;;;0.75;0.75;;;;;;;-2.82;54.80;101059.44;4967489;28;20067;-78
2023/03/18 05:38:09;;;;;;;0.88;0.88;;;;;;;-2.71;54.58;101051.59;4970957;28;20082;-78
2023/03/18 05:40:36;;;;;;;0.70;0.70;;;;;;;-2.55;54.20;101055.81;4988019;28;20761;-78
2023/03/18 05:43:10;;;;;;;0.70;0.70;;;;;;;-2.44;53.63;101045.28;4955440;28;20042;-78
2023/03/18 05:45:44;;;;;;;;;;;;;;;-2.27;53.14;101050.19;4969484;28;20105;-84
2023/03/18 05:48:16;;;;;;;0.85;0.85;;;;;;;-2.13;52.47;101056.28;4978668;28;19931;-80
2023/03/18 05:50:51;;;;;;;0.85;0.85;;;;;;;-2.03;51.95;101049.34;4974157;28;20050;-82
2023/03/18 05:53:22;;;;;;;0.85;0.85;;;;;;;-1.90;51.70;101055.44;4969934;28;20054;-80
2023/03/18 05:55:57;;;;;;;0.77;0.77;;;;;;;-1.80;51.39;101053.78;4970126;28;20221;-80
2023/03/18 05:58:29;;;;;;;0.90;0.90;;;;;;;-1.75;51.42;101059.59;4970670;28;20050;-77
2023/03/18 06:01:12;;;;;;;0.77;0.77;;;;;;;-1.65;51.45;101059.72;4980444;28;20089;-79
2023/03/18 06:03:41;;;;;;;0.70;0.70;;;;;;;-1.64;51.26;101063.25;4967010;28;20058;-79
2023/03/18 06:06:08;;;;;;;0.90;0.90;;;;;;;-1.54;51.04;101064.22;4944292;28;20137;-79
2023/03/18 06:08:36;;;;;;;0.95;0.95;;;;;;;-1.42;50.69;101057.13;4985358;28;20506;-81
2023/03/18 06:11:04;;;;;;;0.73;0.73;;;;;;;-1.30;50.42;101058.84;4965326;28;20051;-78
2023/03/18 06:13:31;;;;;;;0.90;0.90;;;;;;;-1.25;50.07;101063.81;4969710;28;20512;-79
2023/03/18 06:15:59;;;;;;;0.90;0.90;;;;;;;-1.15;50.67;101062.97;4969942;28;20074;-82
2023/03/18 06:18:28;;;;;;;0.98;0.98;;;;;;;-1.07;50.41;101066.84;4970346;28;20047;-78
2023/03/18 06:20:56;;;;;;;0.80;0.80;;;;;;;-1.01;49.77;101072.53;4953259;28;20047;-81
2023/03/18 06:23:23;;;;;;;0.80;0.80;;;;;;;-0.98;49.69;101080.22;4970123;28;20043;-78
2023/03/18 06:25:51;;;;;;;0.80;0.80;;;;;;;-1.01;49.89;101071.66;4998957;28;20104;-79
2023/03/18 06:28:22;;;;;;;0.90;0.90;;;;;;;-0.97;49.66;101071.31;4974166;28;20058;-79
2023/03/18 06:30:49;;;;;;;0.90;0.90;;;;;;;-0.83;49.33;101077.34;4989294;28;20050;-80
2023/03/18 06:33:17;;;;;;;0.80;0.80;;;;;;;-0.72;48.74;101069.38;4989457;28;20073;-81
2023/03/18 06:35:47;;;;;;;0.82;0.82;;;;;;;-0.62;48.88;101075.66;4990695;28;20050;-80
2023/03/18 06:38:15;;;;;;;1.30;1.20;;;;;;;-0.61;48.67;101076.47;4989898;28;20417;-79
2023/03/18 06:40:43;;;;;;;1.00;1.00;;;;;;;-0.57;48.29;101076.13;4991506;28;20527;-79
2023/03/18 06:43:11;;;;;;;0.85;0.85;;;;;;;-0.53;48.14;101074.06;4991572;28;20116;-79
2023/03/18 06:45:41;;;;;;;0.95;0.95;;;;;;;-0.53;47.92;101082.00;4993561;28;20046;-79
2023/03/18 06:48:09;;;;;;;0.90;0.90;;;;;;;-0.34;47.55;101086.72;4993469;28;20089;-79
2023/03/18 06:50:40;;;;;;;0.77;0.77;;;;;;;-0.23;47.21;101092.00;4989785;28;20057;-78
2023/03/18 06:53:14;;;;;;;;;;;;;;;-0.24;47.10;101090.31;4990170;28;20065;-79
2023/03/18 06:55:43;;;;;;;0.90;0.90;;;;;;;-0.16;46.49;101092.34;4972979;28;19926;-80
2023/03/18 06:58:10;;;;;;;1.00;1.00;;;;;;;-0.06;46.06;101080.84;4990017;28;20104;-79
2023/03/18 07:00:47;;;;;;;1.00;1.00;;;;;;;0.04;45.89;101093.38;4978025;28;20129;-80
2023/03/18 07:03:20;;;;;;;1.08;1.08;;;;;;;0.14;45.72;101099.63;4967420;28;20050;-80
2023/03/18 07:05:49;;;;;;;0.80;0.80;;;;;;;0.21;45.45;101096.34;4976279;28;20054;-80
2023/03/18 07:08:17;;;;;;;0.90;0.90;;;;;;;0.24;44.66;101089.94;4960953;28;20061;-79
2023/03/18 07:10:44;;;;;;;0.90;0.90;;;;;;;0.29;44.46;101087.75;4973384;28;20046;-78
2023/03/18 07:13:14;;;;;;;0.98;0.98;;;;;;;0.33;43.63;101097.16;4974637;28;20047;-79
2023/03/18 07:15:42;;;;;;;1.00;1.00;;;;;;;0.35;43.31;101097.84;4957252;28;20133;-79
2023/03/18 07:18:10;;;;;;;1.08;1.08;;;;;;;0.51;43.19;101085.97;4957509;28;20421;-80
2023/03/18 07:20:39;;;;;;;1.10;1.10;;;;;;;0.63;42.67;101095.53;4962919;28;20100;-79
2023/03/18 07:23:06;;;;;;;1.00;1.00;;;;;;;0.73;41.87;101099.09;4992645;28;20078;-79
2023/03/18 07:25:33;;;;;;;1.10;1.10;;;;;;;0.79;41.76;101095.13;4976677;28;20066;-80
2023/03/18 07:28:01;;;;;;;1.00;1.00;;;;;;;0.88;41.10;101094.31;4975831;28;20050;-79
2023/03/18 07:30:29;;;;;;;0.93;0.93;;;;;;;1.02;40.52;101093.16;4992446;28;20042;-80
2023/03/18 07:32:56;;;;;;;1.00;1.00;;;;;;;1.06;40.43;101092.75;4993293;28;20057;-79
2023/03/18 07:35:25;;;;;;;0.90;0.90;;;;;;;1.21;39.72;101095.88;4992210;28;20066;-80
2023/03/18 07:37:52;;;;;;;1.00;1.00;;;;;;;1.32;39.93;101094.09;4993535;28;20069;-80
2023/03/18 07:40:19;;;;;;;1.23;1.20;;;;;;;1.44;39.63;101098.38;4993538;28;20501;-82
2023/03/18 07:42:46;;;;;;;1.00;1.00;;;;;;;1.64;39.58;101097.47;4993462;28;20042;-80
2023/03/18 07:45:13;;;;;;;1.08;1.08;;;;;;;1.85;38.79;101099.19;4993488;28;20401;-80
2023/03/18 07:47:41;;;;;;;1.10;1.10;;;;;;;2.00;38.61;101092.53;4991965;28;20057;-81
2023/03/18 07:50:09;;;;;;;1.02;1.02;;;;;;;1.99;37.61;101098.81;4993264;28;20102;-81
2023/03/18 07:52:37;;;;;;;1.10;1.10;;;;;;;2.04;37.07;101093.06;4993403;28;20527;-79
2023/03/18 07:55:04;;;;;;;1.15;1.13;;;;;;;2.07;36.79;101088.28;4991668;28;20050;-80
2023/03/18 07:57:31;;;;;;;1.13;1.13;;;;;;;2.28;36.34;101100.66;4992444;28;20493;-80
2023/03/18 07:59:59;;;;;;;1.02;1.02;;;;;;;2.46;36.44;101088.34;4993132;28;20077;-79
2023/03/18 08:02:27;;;;;;;1.00;1.00;;;;;;;2.77;35.67;101096.16;4993418;28;20050;-79
2023/03/18 08:04:55;;;;;;;1.02;1.02;;;;;;;3.00;34.78;101086.00;4993564;28;20077;-80
2023/03/18 08:07:23;;;;;;;1.10;1.10;;;;;;;3.15;34.12;101086.38;4975885;28;20058;-79
2023/03/18 08:10:13;;;;;;;1.00;1.00;;;;;;;3.36;33.25;101075.47;4992412;28;20066;-80
2023/03/18 08:12:42;;;;;;;1.00;1.00;;;;;;;3.67;32.49;101086.69;4993552;28;20057;-80
2023/03/18 08:15:20;;;;;;;1.10;1.10;;;;;;;3.97;31.71;101090.06;4992954;28;20054;-80
2023/03/18 08:17:48;;;;;;;1.10;1.10;;;;;;;4.25;31.39;101091.66;4992170;28;20046;-80
2023/03/18 08:20:15;;;;;;;1.00;1.00;;;;;;;4.61;31.34;101094.34;4992805;28;20416;-80
2023/03/18 08:22:42;;;;;;;1.10;1.10;;;;;;;4.87;30.44;101101.56;4993370;28;20046;-81
2023/03/18 08:25:10;;;;;;;1.10;1.10;;;;;;;5.16;29.65;101096.72;4993177;28;20061;-79
2023/03/18 08:27:37;;;;;;;1.00;1.00;;;;;;;5.36;29.58;101091.16;4993013;28;20100;-80
2023/03/18 08:30:05;;;;;;;1.10;1.10;;;;;;;5.53;29.19;101095.59;4992582;28;20050;-81
2023/03/18 08:32:32;;;;;;;1.10;1.10;;;;;;;5.86;28.30;101091.19;4991303;28;20416;-79
2023/03/18 08:35:00;;;;;;;1.00;1.00;;;;;;;6.16;28.86;101093.50;4991864;28;20124;-80
2023/03/18 08:37:29;;;;;;;1.15;1.15;;;;;;;6.47;28.66;101086.47;4991110;28;20046;-79
2023/03/18 08:39:59;;;;;;;1.02;1.02;;;;;;;6.72;27.82;101094.53;4991088;28;20497;-84
2023/03/18 08:42:31;;;;;;;1.00;1.00;;;;;;;6.76;27.43;101087.84;4992318;28;20042;-81
2023/03/18 08:44:58;;;;;;;1.00;1.00;;;;;;;6.99;27.58;101079.06;4992054;28;20061;-83
2023/03/18 08:47:29;;;;;;;1.02;1.02;;;;;;;7.03;27.29;101083.09;4987707;28;20050;-81
2023/03/18 08:49:57;;;;;;;1.08;1.08;;;;;;;7.10;27.71;101081.41;4991471;28;20138;-80
2023/03/18 08:52:24;;;;;;;1.02;1.02;;;;;;;7.42;26.88;101076.94;4992116;28;20054;-80
2023/03/18 08:54:51;;;;;;;1.10;1.10;;;;;;;7.67;27.35;101070.47;4991057;28;20465;-81
2023/03/18 08:57:22;;;;;;;1.10;1.10;;;;;;;7.96;26.56;101075.19;4641338;28;9999692;-80
2023/03/18 08:59:52;;;;;;;1.00;1.00;;;;;;;8.13;26.50;101058.97;4986280;28;20094;-81
2023/03/18 09:02:22;;;;;;;1.00;1.00;;;;;;;8.24;26.22;101072.81;4981600;28;20275;-80
2023/03/18 09:04:53;;;;;;;1.10;1.10;;;;;;;8.52;24.78;101061.53;4987612;28;20480;-80
2023/03/18 09:07:20;;;;;;;1.10;1.10;;;;;;;8.51;24.23;101061.72;4987985;28;20061;-80
2023/03/18 09:09:48;;;;;;;1.00;1.00;;;;;;;8.50;24.41;101070.81;4986858;28;20162;-84
2023/03/18 09:12:18;;;;;;;1.00;1.00;;;;;;;8.56;23.85;101073.63;4987449;28;20449;-79
2023/03/18 09:14:46;;;;;;;1.10;1.10;;;;;;;9.04;24.07;101051.81;4984982;28;20057;-80
2023/03/18 09:17:14;;;;;;;1.10;1.10;;;;;;;9.29;24.63;101061.31;4987134;28;20094;-80
2023/03/18 09:19:41;;;;;;;1.08;1.08;;;;;;;9.63;24.09;101050.97;4961472;28;20081;-81
2023/03/18 09:22:09;;;;;;;1.10;1.10;;;;;;;9.74;24.05;101058.56;4986567;28;20413;-81
2023/03/18 09:24:36;;;;;;;1.10;1.10;;;;;;;10.05;23.93;101061.00;4972601;28;20533;-79
2023/03/18 09:27:15;;;;;;;1.10;1.10;;;;;;;10.25;23.92;101061.19;4961143;28;20050;-79
2023/03/18 09:29:43;;;;;;;1.00;1.00;;;;;;;10.58;23.82;101058.88;4967161;28;20658;-78
2023/03/18 09:32:12;;;;;;;1.10;1.10;;;;;;;11.06;23.32;101050.06;4934616;28;20569;-79
2023/03/18 09:34:39;;;;;;;1.00;1.00;;;;;;;10.68;23.11;101045.00;4950791;28;20445;-78
2023/03/18 09:37:06;;;;;;;1.00;1.00;;;;;;;10.60;23.12;101048.69;4973716;28;20060;-79
2023/03/18 09:39:33;;;;;;;1.00;1.00;;;;;;;10.90;22.82;101042.28;4987217;28;20076;-80
2023/03/18 09:42:33;;;;;;;1.00;1.00;;;;;;;10.70;22.98;101044.81;4986477;28;20046;-81
2023/03/18 09:45:07;;;;;;;1.00;1.00;;;;;;;10.75;22.81;101040.50;4957400;28;20064;-80
2023/03/18 09:47:50;;;;;;;1.00;1.00;;;;;;;11.38;22.04;101034.25;4969893;28;20062;-79
2023/03/18 09:50:23;;;;;;;1.10;1.10;;;;;;;11.71;21.56;101035.22;4987007;28;20051;-77
2023/03/18 09:53:23;;;;;;;1.00;1.00;;;;;;;11.89;21.41;101029.25;4974469;28;20104;-78
2023/03/18 09:56:20;;;;;;;1.08;1.08;;;;;;;12.08;21.24;101029.53;4966972;28;20105;-79
2023/03/18 09:58:52;;;;;;;1.10;1.10;;;;;;;12.25;20.17;101035.38;4974056;28;20054;-78
2023/03/18 10:01:22;;;;;;;1.02;1.02;;;;;;;12.12;20.37;101034.31;4986623;28;20054;-79
2023/03/18 10:04:20;;;;;;;1.10;1.10;;;;;;;12.41;20.89;101020.63;4978188;28;20052;-79
2023/03/18 10:06:51;;;;;;;1.10;1.10;;;;;;;13.04;20.74;101022.84;4953982;28;20184;-79
2023/03/18 10:09:38;;;;;;;1.10;1.10;;;;;;;13.31;20.09;101015.53;4983882;28;20050;-78
2023/03/18 10:12:30;;;;;;;1.10;1.10;;;;;;;13.27;20.06;101009.72;4968605;28;20050;-82
2023/03/18 10:15:00;;;;;;;1.00;1.00;;;;;;;13.37;20.02;101017.41;4984688;28;20084;-82
2023/03/18 10:18:02;;;;;;;1.10;1.10;;;;;;;12.98;20.11;101017.25;4984145;28;20072;-81
2023/03/18 10:20:49;;;;;;;1.10;1.10;;;;;;;12.95;20.77;101000.59;4968174;28;20799;-81
2023/03/18 10:23:35;;;;;;;1.00;1.00;;;;;;;13.32;20.07;101004.47;4968709;28;20058;-82
2023/03/18 10:26:47;;;;;;;1.00;1.00;;;;;;;13.37;20.41;101001.13;4968327;28;20050;-81
2023/03/18 10:29:20;;;;;;;1.00;1.00;;;;;;;13.95;19.13;100992.06;4926416;29;20075;-82
2023/03/18 10:32:08;;;;;;;1.00;1.00;;;;;;;14.20;18.93;100989.38;4925823;29;20063;-81
2023/03/18 10:35:01;;;;;;;1.00;1.00;;;;;;;14.14;19.51;100985.69;4909940;29;20151;-81
2023/03/18 10:37:50;;;;;;;1.00;1.00;;;;;;;14.58;19.10;100986.59;4922519;29;20077;-80
2023/03/18 10:40:19;;;;;;;1.00;1.00;;;;;;;14.67;18.72;100979.84;4952345;29;20424;-82
2023/03/18 10:42:48;;;;;;;1.00;1.00;;;;;;;15.00;18.40;100967.78;4926126;29;20058;-81
2023/03/18 10:45:29;;;;;;;1.00;1.00;;;;;;;14.95;18.33;100973.91;4922792;29;20411;-84
2023/03/18 10:48:09;;;;;;;0.90;0.90;;;;;;;15.08;18.27;100972.94;4932421;29;20056;-81
2023/03/18 10:50:47;;;;;;;0.98;0.98;;;;;;;15.20;17.59;100966.75;4927232;29;20059;-82
2023/03/18 10:53:37;;;;;;;0.90;0.90;;;;;;;15.21;17.30;100963.78;4923531;29;20075;-81
2023/03/18 10:56:11;;;;;;;1.00;1.00;;;;;;;15.22;17.53;100961.88;4923881;29;20122;-82
2023/03/18 10:58:40;;;;;;;0.90;0.90;;;;;;;15.52;17.70;100959.22;4947470;29;20082;-80
2023/03/18 11:01:09;;;;;;;1.00;1.00;;;;;;;15.24;17.15;100957.88;4935398;29;20091;-81
2023/03/18 11:04:02;;;;;;;0.90;0.90;;;;;;;15.03;17.17;100961.91;4933363;29;20069;-81
2023/03/18 11:06:40;;;;;;;0.90;0.90;;;;;;;14.73;16.56;100961.78;4977050;28;20142;-81
2023/03/18 11:09:11;;;;;;;1.00;1.00;;;;;;;14.88;17.02;100953.28;4991397;28;20047;-82
2023/03/18 11:12:05;;;;;;;0.90;0.90;;;;;;;15.81;16.34;100946.72;4987659;28;20054;-81
2023/03/18 11:14:33;;;;;;;0.90;0.90;;;;;;;15.90;16.11;100958.94;4992258;28;20424;-81
2023/03/18 11:17:17;;;;;;;0.95;0.95;;;;;;;16.02;15.99;100951.59;4964420;28;20074;-80
2023/03/18 11:19:48;;;;;;;1.00;1.00;;;;;;;15.84;15.51;100951.69;4976164;28;20050;-81
2023/03/18 11:22:22;;;;;;;0.95;0.95;;;;;;;15.90;15.68;100950.78;4989728;28;20050;-80
2023/03/18 11:25:10;;;;;;;0.93;0.93;;;;;;;16.03;16.10;100956.00;4978608;28;20057;-81
2023/03/18 11:27:44;;;;;;;1.00;1.00;;;;;;;16.58;15.92;100940.44;4990007;28;20133;-80
2023/03/18 11:30:12;;;;;;;0.90;0.90;;;;;;;16.74;16.00;100949.81;4992637;28;20050;-80
2023/03/18 11:33:10;;;;;;;1.00;1.00;;;;;;;17.26;15.26;100944.41;4990533;28;20058;-81
2023/03/18 11:35:53;;;;;;;1.00;1.00;;;;;;;17.43;14.80;100936.28;4975858;28;20059;-82
2023/03/18 11:38:27;;;;;;;0.90;0.90;;;;;;;17.38;14.40;100945.19;4984538;28;20058;-82
2023/03/18 11:41:16;;;;;;;0.82;0.82;;;;;;;16.78;14.64;100940.09;4989514;28;20054;-83
2023/03/18 11:44:01;;;;;;;0.80;0.80;;;;;;;16.68;15.11;100940.66;4987747;28;20050;-82
2023/03/18 11:46:51;;;;;;;1.00;1.00;;;;;;;16.25;15.46;100936.38;4990561;28;20054;-81